Time;durP1;ratioP1;P1;durP2;ratioP2;P2;SDS_P1;SDS_P2;PMS_P1;PMS_P2;Temp;Humidity;BMP_temperature;BMP_pressure;BME280_temperature;BME280_humidity;BME280_pressure;Samples;Min_cycle;Max_cycle;Signal;HPM_P1;HPM_P2
2022/09/19 00:01:56;;;;;;;0.47;0.47;;;;;;;12.73;100.00;99797.42;1635887;88;21472;-72
2022/09/19 00:04:30;;;;;;;0.60;0.60;;;;;;;12.75;100.00;99800.30;1635730;88;21027;-72
2022/09/19 00:06:58;;;;;;;0.50;0.50;;;;;;;12.66;100.00;99802.63;1635623;88;21047;-72
2022/09/19 00:09:30;;;;;;;0.88;0.60;;;;;;;12.58;100.00;99803.94;1635910;88;21066;-72
2022/09/19 00:11:59;;;;;;;0.60;0.60;;;;;;;12.41;100.00;99801.61;1635831;88;21515;-72
2022/09/19 00:14:31;;;;;;;0.50;0.50;;;;;;;12.49;100.00;99808.84;1636011;88;21099;-71
2022/09/19 00:17:03;;;;;;;2.30;0.60;;;;;;;12.58;100.00;99809.09;1635814;87;21148;-72
2022/09/19 00:19:30;;;;;;;0.72;0.50;;;;;;;12.55;100.00;99804.59;1635926;88;21209;-72
2022/09/19 00:22:00;;;;;;;0.60;0.60;;;;;;;12.54;100.00;99803.77;1635796;88;21196;-72
2022/09/19 00:24:46;;;;;;;2.70;0.82;;;;;;;12.48;100.00;99807.20;1635723;88;21104;-72
2022/09/19 00:27:19;;;;;;;0.70;0.70;;;;;;;12.44;100.00;99807.86;1635502;87;21054;-72
2022/09/19 00:29:46;;;;;;;1.12;0.60;;;;;;;12.42;100.00;99806.66;1643601;87;21039;-72
2022/09/19 00:32:16;;;;;;;1.22;0.50;;;;;;;12.38;100.00;99806.95;1639451;87;21047;-72
2022/09/19 00:34:47;;;;;;;1.65;0.65;;;;;;;12.38;100.00;99801.32;1635581;87;21075;-73
2022/09/19 00:37:18;;;;;;;1.32;0.60;;;;;;;12.34;100.00;99808.07;1635750;88;21055;-73
2022/09/19 00:39:46;;;;;;;0.68;0.50;;;;;;;12.34;100.00;99815.81;1635819;88;21035;-72
2022/09/19 00:42:20;;;;;;;0.80;0.80;;;;;;;12.31;100.00;99810.86;1635711;87;21119;-71
2022/09/19 00:44:55;;;;;;;0.70;0.70;;;;;;;12.31;100.00;99817.31;1635864;88;21507;-72
2022/09/19 00:47:33;;;;;;;3.72;0.80;;;;;;;12.28;100.00;99816.19;1635068;88;21574;-72
2022/09/19 00:50:03;;;;;;;0.57;0.57;;;;;;;12.33;100.00;99821.91;1635811;87;21072;-72
2022/09/19 00:52:50;;;;;;;0.72;0.60;;;;;;;12.27;100.00;99825.70;1635712;88;21058;-72
2022/09/19 00:55:18;;;;;;;1.87;0.60;;;;;;;12.21;100.00;99830.77;1635876;88;21070;-72
2022/09/19 00:58:05;;;;;;;0.50;0.50;;;;;;;12.24;100.00;99824.58;1635734;88;21035;-72
2022/09/19 01:00:34;;;;;;;0.72;0.72;;;;;;;12.22;100.00;99830.30;1635519;88;21523;-72
2022/09/19 01:03:07;;;;;;;0.60;0.60;;;;;;;12.21;100.00;99826.08;1635679;88;21059;-72
2022/09/19 01:06:01;;;;;;;0.57;0.57;;;;;;;12.21;100.00;99820.45;1635966;88;20996;-72
2022/09/19 01:09:03;;;;;;;1.10;0.83;;;;;;;12.18;100.00;99827.55;1635562;88;21124;-72
2022/09/19 01:12:07;;;;;;;0.88;0.80;;;;;;;12.15;100.00;99832.91;1635382;88;21075;-72
2022/09/19 01:15:00;;;;;;;0.88;0.80;;;;;;;12.10;100.00;99829.30;1636044;88;21156;-72
2022/09/19 01:17:47;;;;;;;1.02;0.85;;;;;;;12.03;100.00;99830.14;1635536;88;21040;-72
2022/09/19 01:20:25;;;;;;;1.22;0.80;;;;;;;11.97;100.00;99829.23;1635496;88;21008;-72
2022/09/19 01:23:36;;;;;;;0.95;0.95;;;;;;;12.05;100.00;99834.39;1594571;87;21078;-71
2022/09/19 01:26:20;;;;;;;2.33;1.02;;;;;;;12.09;100.00;99833.28;1635533;88;21487;-72
2022/09/19 01:28:57;;;;;;;2.10;1.10;;;;;;;12.03;100.00;99837.06;1637483;87;21043;-72
2022/09/19 01:31:30;;;;;;;1.40;1.10;;;;;;;11.95;100.00;99831.07;1635860;87;21046;-72
2022/09/19 01:34:06;;;;;;;2.42;1.35;;;;;;;11.95;100.00;99825.91;1635834;88;21595;-72
2022/09/19 01:36:54;;;;;;;1.32;1.22;;;;;;;11.95;100.00;99826.37;1635616;88;21091;-72
2022/09/19 01:39:25;;;;;;;1.40;1.20;;;;;;;11.96;100.00;99822.86;1621996;88;21023;-72
2022/09/19 01:41:57;;;;;;;1.05;1.00;;;;;;;12.00;100.00;99830.34;1635538;88;21062;-73
2022/09/19 01:44:26;;;;;;;2.42;1.10;;;;;;;11.98;100.00;99827.47;1635693;88;21091;-72
2022/09/19 01:47:09;;;;;;;1.40;1.07;;;;;;;11.98;100.00;99836.05;1635814;88;21708;-72
2022/09/19 01:49:59;;;;;;;1.90;1.20;;;;;;;11.99;100.00;99839.45;1635597;87;21123;-72
2022/09/19 01:53:08;;;;;;;1.47;1.10;;;;;;;11.99;100.00;99841.56;1635660;88;21528;-72
2022/09/19 01:56:28;;;;;;;5.92;1.30;;;;;;;11.87;100.00;99844.86;1633597;88;21031;-72
2022/09/19 01:59:21;;;;;;;1.55;1.30;;;;;;;11.85;100.00;99840.72;1635673;87;21501;-72
2022/09/19 02:02:02;;;;;;;1.62;1.50;;;;;;;11.85;100.00;99844.59;1634847;88;21059;-72
2022/09/19 02:04:45;;;;;;;2.50;1.42;;;;;;;11.78;100.00;99843.67;1635674;88;21091;-72
2022/09/19 02:07:26;;;;;;;3.20;1.60;;;;;;;11.65;100.00;99841.91;1636283;87;21012;-72
2022/09/19 02:10:01;;;;;;;1.98;1.52;;;;;;;11.66;100.00;99836.66;1636043;87;21043;-72
2022/09/19 02:12:34;;;;;;;1.70;1.47;;;;;;;11.62;100.00;99833.90;1635677;88;21527;-72
2022/09/19 02:15:03;;;;;;;3.08;1.40;;;;;;;11.65;100.00;99836.28;1635637;88;21011;-72
2022/09/19 02:17:50;;;;;;;2.80;1.90;;;;;;;11.53;100.00;99836.54;1614572;88;21575;-73
2022/09/19 02:20:27;;;;;;;3.02;1.65;;;;;;;11.51;100.00;99833.69;1640193;87;22080;-73
2022/09/19 02:23:00;;;;;;;2.22;1.62;;;;;;;11.63;100.00;99844.09;1635690;88;21023;-72
2022/09/19 02:25:32;;;;;;;2.35;1.60;;;;;;;11.55;100.00;99840.32;1633456;88;21524;-73
2022/09/19 02:28:04;;;;;;;1.95;1.60;;;;;;;11.40;100.00;99840.30;1635754;88;21043;-72
2022/09/19 02:30:31;;;;;;;2.60;1.70;;;;;;;11.43;100.00;99842.72;1635671;87;21027;-72
2022/09/19 02:33:00;;;;;;;1.87;1.70;;;;;;;11.46;100.00;99841.70;1631324;87;21000;-72
2022/09/19 02:35:48;;;;;;;2.55;1.70;;;;;;;11.40;100.00;99848.03;1635482;88;21091;-72
2022/09/19 02:38:51;;;;;;;2.20;1.70;;;;;;;11.39;100.00;99849.41;1635655;87;21095;-73
2022/09/19 02:41:42;;;;;;;2.15;1.70;;;;;;;11.30;100.00;99846.09;1639141;87;21066;-72
2022/09/19 02:44:24;;;;;;;2.15;1.80;;;;;;;11.26;100.00;99852.34;1613369;88;21063;-72
2022/09/19 02:47:16;;;;;;;2.37;1.82;;;;;;;11.29;100.00;99851.67;1635344;88;21203;-73
2022/09/19 02:49:53;;;;;;;3.50;1.98;;;;;;;11.20;100.00;99859.95;1608573;88;21051;-72
2022/09/19 02:52:33;;;;;;;3.70;1.77;;;;;;;11.12;100.00;99859.55;1635777;88;21035;-73
2022/09/19 02:55:13;;;;;;;3.02;2.00;;;;;;;11.22;100.00;99861.98;1635097;88;21066;-73
2022/09/19 02:57:51;;;;;;;2.05;1.75;;;;;;;11.22;100.00;99867.13;1635772;87;21079;-73
2022/09/19 03:00:21;;;;;;;2.33;1.62;;;;;;;11.08;100.00;99856.32;1613972;88;21118;-72
2022/09/19 03:04:11;;;;;;;2.72;1.80;;;;;;;11.14;100.00;99857.72;1637648;87;21122;-73
2022/09/19 03:05:38;;;;;;;1.70;1.60;;;;;;;11.04;100.00;99858.70;1635731;87;21106;-73
2022/09/19 03:08:15;;;;;;;1.82;1.70;;;;;;;11.07;100.00;99857.69;1635982;88;21094;-73
2022/09/19 03:10:42;;;;;;;2.40;1.70;;;;;;;11.06;100.00;99856.86;1635215;88;21108;-73
2022/09/19 03:13:11;;;;;;;2.22;2.00;;;;;;;11.07;100.00;99852.53;1635061;87;21406;-73
2022/09/19 03:15:50;;;;;;;2.10;1.90;;;;;;;11.10;100.00;99853.66;1635593;88;21027;-74
2022/09/19 03:18:22;;;;;;;2.33;1.75;;;;;;;11.24;100.00;99853.70;1634878;86;21091;-73
2022/09/19 03:20:59;;;;;;;5.70;2.12;;;;;;;11.26;100.00;99857.02;1635752;88;21555;-73
2022/09/19 03:23:32;;;;;;;2.02;1.80;;;;;;;11.21;100.00;99866.31;1635913;88;21079;-74
2022/09/19 03:25:58;;;;;;;2.55;1.87;;;;;;;11.36;100.00;99883.09;1636229;87;21171;-73
2022/09/19 03:28:25;;;;;;;3.90;2.30;;;;;;;11.31;100.00;99876.08;1635916;88;21520;-72
2022/09/19 03:30:59;;;;;;;2.98;2.00;;;;;;;11.32;100.00;99879.03;1635843;88;21023;-73
2022/09/19 03:33:23;;;;;;;5.92;2.47;;;;;;;11.30;100.00;99884.27;1635287;87;21079;-72
2022/09/19 03:35:52;;;;;;;4.40;2.35;;;;;;;11.35;100.00;99878.84;1635717;88;21036;-72
2022/09/19 03:38:21;;;;;;;3.15;2.10;;;;;;;11.27;100.00;99883.61;1635554;88;21068;-73
2022/09/19 03:40:50;;;;;;;3.37;2.20;;;;;;;11.33;100.00;99893.56;1635930;87;21651;-73
2022/09/19 03:43:17;;;;;;;3.00;2.60;;;;;;;11.37;100.00;99895.05;1635593;88;21035;-72
2022/09/19 03:45:44;;;;;;;2.70;2.30;;;;;;;11.43;100.00;99907.14;1635787;87;21071;-73
2022/09/19 03:48:12;;;;;;;3.10;2.20;;;;;;;11.36;100.00;99908.40;1635595;88;21192;-73
2022/09/19 03:50:39;;;;;;;3.47;2.12;;;;;;;11.40;100.00;99909.88;1635664;88;21055;-73
2022/09/19 03:53:10;;;;;;;2.60;2.37;;;;;;;11.41;100.00;99915.86;1635489;88;21027;-73
2022/09/19 03:55:38;;;;;;;2.55;2.27;;;;;;;11.42;100.00;99918.36;1635563;88;21074;-73
2022/09/19 03:58:05;;;;;;;3.92;2.40;;;;;;;11.47;100.00;99915.97;1635793;88;21043;-73
2022/09/19 04:00:34;;;;;;;2.58;2.33;;;;;;;11.50;100.00;99924.84;1635734;88;21046;-73
2022/09/19 04:03:01;;;;;;;3.35;2.52;;;;;;;11.55;100.00;99932.66;1635861;88;21083;-72
2022/09/19 04:05:30;;;;;;;4.87;2.42;;;;;;;11.65;100.00;99929.55;1635882;88;21043;-72
2022/09/19 04:07:58;;;;;;;4.95;2.67;;;;;;;11.67;100.00;99942.72;1635647;88;21172;-73
2022/09/19 04:10:27;;;;;;;5.62;2.67;;;;;;;11.65;100.00;99947.14;1635489;88;21120;-73
2022/09/19 04:12:56;;;;;;;3.90;2.50;;;;;;;11.67;100.00;99962.06;1635508;88;21083;-73
2022/09/19 04:15:23;;;;;;;3.50;2.40;;;;;;;11.68;100.00;99964.17;1635728;88;21080;-73
2022/09/19 04:17:51;;;;;;;3.85;2.55;;;;;;;11.75;100.00;99970.65;1635666;88;21594;-73
2022/09/19 04:20:18;;;;;;;3.25;2.77;;;;;;;11.71;100.00;99978.19;1635893;88;21520;-72
2022/09/19 04:23:00;;;;;;;5.17;2.83;;;;;;;11.78;100.00;99981.62;1634039;87;21487;-72
2022/09/19 04:25:35;;;;;;;4.28;2.80;;;;;;;11.92;100.00;99993.76;1634601;88;21495;-72
2022/09/19 04:28:07;;;;;;;4.47;2.85;;;;;;;11.96;100.00;99989.23;1641612;87;21028;-73
2022/09/19 04:30:40;;;;;;;4.72;3.08;;;;;;;11.98;100.00;99991.26;1635905;88;21076;-72
2022/09/19 04:33:10;;;;;;;3.75;2.62;;;;;;;12.12;100.00;100000.78;1635782;87;21086;-73
2022/09/19 04:35:41;;;;;;;4.15;2.90;;;;;;;12.20;100.00;99996.81;1639986;87;20999;-72
2022/09/19 04:38:12;;;;;;;5.00;3.02;;;;;;;12.19;100.00;100003.38;1635844;88;21000;-72
2022/09/19 04:40:42;;;;;;;5.17;2.60;;;;;;;12.20;100.00;100007.61;1635737;88;21019;-73
2022/09/19 04:43:12;;;;;;;5.03;2.60;;;;;;;12.32;100.00;100013.33;1635754;88;21072;-72
2022/09/19 04:45:48;;;;;;;3.08;2.45;;;;;;;12.27;100.00;100010.21;1635734;88;21015;-72
2022/09/19 04:48:13;;;;;;;5.80;2.80;;;;;;;12.32;100.00;100009.93;1634689;88;21071;-72
2022/09/19 04:50:45;;;;;;;5.20;3.20;;;;;;;12.40;100.00;100021.92;1635927;88;21003;-73
2022/09/19 04:53:13;;;;;;;3.87;2.85;;;;;;;12.45;100.00;100028.94;1635257;88;21106;-72
2022/09/19 04:55:41;;;;;;;3.02;2.55;;;;;;;12.49;100.00;100026.55;1613387;88;21067;-73
2022/09/19 04:58:10;;;;;;;4.05;2.75;;;;;;;12.49;100.00;100029.56;1635326;88;21003;-73
2022/09/19 05:00:38;;;;;;;4.58;2.90;;;;;;;12.56;100.00;100035.57;1635439;88;21067;-72
2022/09/19 05:03:13;;;;;;;3.55;2.52;;;;;;;12.62;100.00;100051.98;1635613;88;21567;-73
2022/09/19 05:05:44;;;;;;;3.87;3.00;;;;;;;12.75;100.00;100060.28;1635901;88;21035;-73
2022/09/19 05:08:15;;;;;;;3.98;2.80;;;;;;;12.76;100.00;100071.00;1635359;88;21031;-72
2022/09/19 05:10:44;;;;;;;5.30;3.42;;;;;;;12.81;100.00;100076.27;1613976;88;21092;-72
2022/09/19 05:13:12;;;;;;;5.00;3.00;;;;;;;12.82;100.00;100074.50;1635649;88;21039;-72
2022/09/19 05:15:41;;;;;;;5.50;3.05;;;;;;;12.93;100.00;100085.47;1635601;88;21047;-72
2022/09/19 05:18:10;;;;;;;4.72;2.98;;;;;;;12.97;100.00;100080.48;1635392;88;21040;-72
2022/09/19 05:20:39;;;;;;;4.87;2.67;;;;;;;13.10;100.00;100083.14;1635520;88;21358;-73
2022/09/19 05:23:07;;;;;;;3.83;2.98;;;;;;;13.19;100.00;100101.50;1635528;88;21055;-72
2022/09/19 05:25:40;;;;;;;5.95;3.10;;;;;;;13.30;100.00;100106.50;1635739;88;21102;-72
2022/09/19 05:28:08;;;;;;;4.75;3.08;;;;;;;13.33;100.00;100112.78;1613784;88;21039;-73
2022/09/19 05:30:49;;;;;;;6.97;3.52;;;;;;;13.43;100.00;100120.34;1635620;88;21034;-73
2022/09/19 05:33:23;;;;;;;4.30;3.12;;;;;;;13.59;100.00;100119.75;1635532;87;21475;-72
2022/09/19 05:35:48;;;;;;;5.20;3.10;;;;;;;13.67;100.00;100124.44;1635334;88;21003;-73
2022/09/19 05:38:19;;;;;;;5.03;3.10;;;;;;;13.78;100.00;100131.04;1632201;86;21870;-73
2022/09/19 05:41:02;;;;;;;3.92;3.10;;;;;;;13.89;100.00;100132.11;1636223;87;21063;-72
2022/09/19 05:43:37;;;;;;;4.47;3.33;;;;;;;13.94;100.00;100154.19;1634941;87;21115;-73
2022/09/19 05:46:05;;;;;;;3.65;2.70;;;;;;;14.01;100.00;100154.17;1636387;88;21094;-72
2022/09/19 05:48:37;;;;;;;4.62;3.00;;;;;;;14.08;100.00;100164.13;1636906;87;21019;-72
2022/09/19 05:51:03;;;;;;;6.37;3.33;;;;;;;14.05;100.00;100165.17;1633921;88;21076;-72
2022/09/19 05:56:34;;;;;;;4.97;3.08;;;;;;;14.22;100.00;100180.42;1633086;87;21051;-72
2022/09/19 05:59:03;;;;;;;4.87;3.10;;;;;;;14.36;100.00;100183.89;1629831;87;21067;-72
2022/09/19 06:01:31;;;;;;;4.83;3.20;;;;;;;14.45;100.00;100185.05;1634665;87;21063;-72
2022/09/19 06:03:59;;;;;;;6.85;3.27;;;;;;;14.58;100.00;100193.23;1645001;86;21042;-72
2022/09/19 06:06:29;;;;;;;4.47;3.00;;;;;;;14.63;100.00;100196.81;1634879;87;21580;-72
2022/09/19 06:08:58;;;;;;;5.20;3.22;;;;;;;14.70;100.00;100204.56;1622515;87;21081;-72
2022/09/19 06:11:28;;;;;;;5.33;3.30;;;;;;;14.80;100.00;100214.67;1633014;87;21508;-71
2022/09/19 06:16:41;;;;;;;3.08;2.72;;;;;;;14.86;100.00;100219.89;1633302;87;21574;-72
2022/09/19 06:19:16;;;;;;;7.70;3.50;;;;;;;15.01;100.00;100225.84;1607212;88;21139;-72
2022/09/19 06:21:44;;;;;;;5.45;3.15;;;;;;;15.00;100.00;100234.08;1633772;88;21036;-72
2022/09/19 06:24:12;;;;;;;5.15;3.10;;;;;;;15.00;100.00;100237.97;1678676;84;21184;-72
2022/09/19 06:26:39;;;;;;;4.83;3.00;;;;;;;15.16;100.00;100244.23;1647047;86;21031;-72
2022/09/19 06:29:06;;;;;;;5.28;2.90;;;;;;;15.19;100.00;100258.30;1677054;84;21086;-72
2022/09/19 06:31:35;;;;;;;4.35;2.90;;;;;;;15.26;100.00;100265.19;1668759;85;21064;-72
2022/09/19 06:34:12;;;;;;;5.30;3.25;;;;;;;15.23;100.00;100271.89;1654668;85;21063;-71
2022/09/19 06:36:39;;;;;;;5.00;3.70;;;;;;;15.31;100.00;100267.46;1676155;84;20996;-72
2022/09/19 06:39:07;;;;;;;5.78;3.52;;;;;;;15.34;100.00;100270.68;1640201;86;21051;-72
2022/09/19 06:41:36;;;;;;;4.97;3.12;;;;;;;15.51;100.00;100275.19;1687431;84;21510;-71
2022/09/19 06:44:15;;;;;;;4.12;2.92;;;;;;;15.66;100.00;100281.11;1684596;84;21063;-72
2022/09/19 06:47:00;;;;;;;5.90;3.00;;;;;;;15.60;100.00;100271.98;1679376;83;21570;-71
2022/09/19 06:49:33;;;;;;;6.55;2.72;;;;;;;15.68;100.00;100264.48;1677624;84;21581;-72
2022/09/19 06:52:16;;;;;;;3.37;2.90;;;;;;;15.75;100.00;100276.59;1682276;84;21524;-72
2022/09/19 06:54:44;;;;;;;4.25;2.62;;;;;;;15.88;100.00;100289.56;1692633;84;21055;-72
2022/09/19 06:57:11;;;;;;;5.10;2.72;;;;;;;15.96;100.00;100288.56;1666890;86;21059;-72
2022/09/19 06:59:38;;;;;;;3.60;2.85;;;;;;;16.13;100.00;100301.64;1617032;87;21091;-71
2022/09/19 07:02:05;;;;;;;5.65;2.65;;;;;;;16.10;100.00;100304.44;1634545;87;21032;-72
2022/09/19 07:04:34;;;;;;;4.22;2.70;;;;;;;16.19;100.00;100304.63;1629897;87;21067;-72
2022/09/19 07:07:05;;;;;;;4.92;2.72;;;;;;;16.17;100.00;100294.00;1630530;88;21043;-72
2022/09/19 07:09:34;;;;;;;2.90;2.33;;;;;;;16.26;100.00;100297.70;1640859;86;21038;-72
2022/09/19 07:12:01;;;;;;;5.00;2.60;;;;;;;16.40;100.00;100300.14;1677527;83;21050;-72
2022/09/19 07:14:30;;;;;;;2.35;2.08;;;;;;;16.47;100.00;100311.76;1664559;84;21043;-72
2022/09/19 07:16:59;;;;;;;4.28;2.37;;;;;;;16.65;100.00;100316.10;1643752;86;21051;-72
2022/09/19 07:19:25;;;;;;;3.37;2.20;;;;;;;16.82;100.00;100323.99;1635810;85;21056;-71
2022/09/19 07:22:06;;;;;;;5.80;2.35;;;;;;;16.86;100.00;100333.22;1588218;86;21030;-72
2022/09/19 07:24:38;;;;;;;4.12;1.90;;;;;;;16.91;100.00;100334.18;1606722;86;21110;-71
2022/09/19 07:27:16;;;;;;;2.42;1.80;;;;;;;16.95;100.00;100336.47;1616712;87;21102;-72
2022/09/19 07:29:44;;;;;;;2.15;1.65;;;;;;;17.13;100.00;100341.23;1679212;84;21107;-72
2022/09/19 07:32:11;;;;;;;2.85;1.50;;;;;;;17.35;100.00;100346.48;1638587;85;21513;-72
2022/09/19 07:34:39;;;;;;;2.87;2.08;;;;;;;17.38;98.35;100346.27;1648953;86;21120;-71
2022/09/19 07:37:06;;;;;;;3.05;2.02;;;;;;;17.30;98.43;100352.52;1657937;86;21016;-71
2022/09/19 07:39:34;;;;;;;3.37;1.60;;;;;;;17.50;100.00;100352.33;1642888;86;21515;-72
2022/09/19 07:42:08;;;;;;;2.77;1.40;;;;;;;17.62;97.21;100350.57;1640254;86;21071;-72
2022/09/19 07:44:46;;;;;;;3.72;1.50;;;;;;;17.67;95.64;100349.73;1627409;86;21537;-72
2022/09/19 07:47:33;;;;;;;2.58;1.50;;;;;;;17.62;94.14;100353.99;1587886;89;21121;-72
2022/09/19 07:50:07;;;;;;;4.33;1.60;;;;;;;17.90;93.05;100359.70;1622345;87;21555;-73
2022/09/19 07:52:39;;;;;;;1.70;1.42;;;;;;;18.14;93.92;100353.06;1632979;87;21016;-72
2022/09/19 07:55:10;;;;;;;1.40;1.30;;;;;;;18.22;93.58;100346.77;1658029;86;21043;-71
2022/09/19 07:57:40;;;;;;;2.55;1.40;;;;;;;18.18;91.59;100358.38;1626481;87;21122;-72
2022/09/19 08:00:08;;;;;;;1.77;1.40;;;;;;;18.13;89.35;100346.20;1630426;87;21086;-72
2022/09/19 08:02:37;;;;;;;2.10;1.42;;;;;;;18.22;89.22;100353.28;1629856;86;20999;-72
2022/09/19 08:05:05;;;;;;;1.40;1.30;;;;;;;18.37;87.61;100355.63;1606921;88;21590;-73
2022/09/19 08:07:34;;;;;;;1.20;1.10;;;;;;;18.31;84.21;100354.36;1680774;85;21562;-72
2022/09/19 08:10:02;;;;;;;3.05;1.20;;;;;;;18.27;83.10;100359.46;1678216;84;21052;-72
2022/09/19 08:12:31;;;;;;;3.62;1.50;;;;;;;18.45;85.55;100349.81;1641806;86;21667;-72
2022/09/19 08:15:07;;;;;;;2.25;1.27;;;;;;;18.48;84.42;100346.97;1682479;84;21113;-72
2022/09/19 08:17:36;;;;;;;1.98;1.20;;;;;;;18.69;86.81;100345.72;1675880;83;21464;-72
2022/09/19 08:20:05;;;;;;;3.20;1.32;;;;;;;18.81;81.53;100352.09;1693180;84;21015;-73
2022/09/19 08:22:34;;;;;;;3.27;1.42;;;;;;;18.84;82.67;100355.44;1672984;83;21610;-72
2022/09/19 08:25:04;;;;;;;2.87;1.40;;;;;;;18.82;80.04;100350.33;1642937;86;21058;-71
2022/09/19 08:27:34;;;;;;;3.55;1.50;;;;;;;18.97;79.23;100359.50;1643067;86;21524;-72
2022/09/19 08:30:01;;;;;;;2.25;1.60;;;;;;;18.75;79.07;100343.91;1612378;86;21085;-72
2022/09/19 08:32:28;;;;;;;2.40;1.40;;;;;;;18.86;81.12;100356.95;1679172;83;21079;-72
2022/09/19 08:34:56;;;;;;;1.27;1.15;;;;;;;18.97;79.23;100350.85;1672839;83;21564;-73
2022/09/19 08:37:25;;;;;;;2.08;1.30;;;;;;;18.94;77.43;100350.64;1679074;82;21040;-72
2022/09/19 08:43:08;;;;;;;3.20;1.67;;;;;;;18.89;76.62;100346.26;1634581;86;21023;-73
2022/09/19 08:46:06;;;;;;;3.27;1.62;;;;;;;19.20;77.91;100351.55;1654002;85;21157;-73
2022/09/19 08:49:15;;;;;;;2.05;1.65;;;;;;;19.38;73.74;100355.27;1643226;86;21659;-73
2022/09/19 08:52:22;;;;;;;2.22;1.40;;;;;;;19.47;72.81;100369.81;1679368;84;21062;-73
2022/09/19 08:54:54;;;;;;;2.55;1.40;;;;;;;19.31;68.98;100363.25;1684002;84;21051;-73
2022/09/19 08:57:33;;;;;;;2.87;1.50;;;;;;;19.34;70.36;100360.85;1685975;84;21027;-73
2022/09/19 09:00:08;;;;;;;2.10;1.45;;;;;;;19.18;68.27;100367.81;1648004;86;21086;-73
2022/09/19 09:03:02;;;;;;;2.08;1.70;;;;;;;19.20;68.04;100375.89;1655781;86;21628;-73
2022/09/19 09:05:37;;;;;;;3.47;1.90;;;;;;;19.37;70.34;100370.56;1652080;86;21008;-73
2022/09/19 09:08:33;;;;;;;3.83;1.30;;;;;;;19.57;70.86;100365.47;1646359;85;21079;-73
2022/09/19 09:11:23;;;;;;;2.52;1.60;;;;;;;19.16;71.39;100368.42;1661608;85;21717;-71
2022/09/19 09:13:56;;;;;;;3.08;1.72;;;;;;;19.17;72.51;100368.78;1666290;84;21555;-70
2022/09/19 09:16:53;;;;;;;2.40;1.67;;;;;;;19.17;71.83;100369.60;1663258;85;21092;-71
2022/09/19 09:19:59;;;;;;;3.52;1.35;;;;;;;19.06;70.69;100385.33;1618950;87;21576;-72
2022/09/19 09:22:34;;;;;;;2.85;1.60;;;;;;;19.04;72.60;100369.43;1625409;85;21146;-71
2022/09/19 09:25:29;;;;;;;2.52;1.55;;;;;;;19.12;72.37;100368.32;1628906;87;21088;-72
2022/09/19 09:28:06;;;;;;;3.52;1.50;;;;;;;19.30;72.10;100375.97;1663775;84;21184;-71
2022/09/19 09:30:39;;;;;;;3.15;1.50;;;;;;;19.46;72.88;100378.59;1661459;84;21070;-71
2022/09/19 09:33:28;;;;;;;2.10;1.50;;;;;;;19.65;69.31;100381.32;1637033;86;21025;-71
2022/09/19 09:36:06;;;;;;;2.20;1.37;;;;;;;19.68;69.90;100384.96;1597629;87;21077;-71
2022/09/19 09:38:47;;;;;;;2.85;1.22;;;;;;;19.74;67.59;100383.66;1635280;86;21553;-73
2022/09/19 09:41:45;;;;;;;2.33;1.30;;;;;;;19.70;65.89;100380.92;1600289;88;21066;-72
2022/09/19 09:44:30;;;;;;;4.25;1.30;;;;;;;19.82;67.50;100386.44;1637296;86;21116;-72
2022/09/19 09:47:20;;;;;;;3.00;1.20;;;;;;;19.72;65.13;100386.39;1653118;85;21036;-72
2022/09/19 09:49:49;;;;;;;2.17;1.10;;;;;;;19.96;66.14;100386.09;1646888;83;21575;-73
2022/09/19 09:52:28;;;;;;;2.80;1.20;;;;;;;20.05;64.97;100394.91;1644848;85;21575;-72
2022/09/19 09:58:41;;;;;;;1.37;1.10;;;;;;;19.83;64.31;100399.86;1638176;86;21554;-72
2022/09/19 10:04:35;;;;;;;3.10;0.90;;;;;;;20.07;63.76;100402.63;1639891;86;21086;-72
2022/09/19 10:07:58;;;;;;;2.47;1.10;;;;;;;20.23;65.62;100392.51;1621023;87;21104;-72
2022/09/19 10:10:22;;;;;;;2.15;0.90;;;;;;;20.28;63.14;100392.95;1625638;87;21058;-72
2022/09/19 10:13:07;;;;;;;2.40;0.80;;;;;;;20.33;61.05;100395.16;1680113;85;21672;-72
2022/09/19 10:15:39;;;;;;;1.22;0.90;;;;;;;20.50;60.58;100398.44;1671227;84;20998;-72
2022/09/19 10:18:14;;;;;;;0.95;0.95;;;;;;;20.53;61.27;100397.34;1676037;84;21078;-73
2022/09/19 10:20:52;;;;;;;0.80;0.80;;;;;;;20.76;62.06;100404.48;1664696;83;21498;-72
2022/09/19 10:23:25;;;;;;;1.00;0.65;;;;;;;20.83;60.19;100413.45;1636311;86;21104;-73
2022/09/19 10:26:02;;;;;;;4.58;1.00;;;;;;;20.63;58.88;100397.39;1645149;86;21054;-73
2022/09/19 10:28:41;;;;;;;4.53;1.10;;;;;;;20.78;60.09;100403.41;1640803;86;21614;-74
2022/09/19 10:31:35;;;;;;;3.58;1.15;;;;;;;21.00;60.80;100415.41;1675874;84;21052;-73
2022/09/19 10:34:34;;;;;;;1.50;0.90;;;;;;;20.97;59.38;100417.46;1680462;85;21181;-73
2022/09/19 10:37:02;;;;;;;2.20;1.20;;;;;;;21.17;59.67;100406.52;1675793;84;21068;-72
2022/09/19 10:39:30;;;;;;;3.83;1.10;;;;;;;21.41;61.80;100402.97;1686163;84;21496;-73
2022/09/19 10:41:57;;;;;;;3.85;1.50;;;;;;;21.46;58.04;100426.14;1684751;84;21047;-74
2022/09/19 10:44:26;;;;;;;2.08;1.27;;;;;;;21.04;57.44;100416.42;1646567;86;21127;-73
2022/09/19 10:47:02;;;;;;;2.33;1.32;;;;;;;20.98;58.47;100415.98;1635985;87;21079;-73
2022/09/19 10:49:39;;;;;;;3.83;1.35;;;;;;;20.97;58.49;100426.13;1664133;84;21078;-73
2022/09/19 10:52:07;;;;;;;3.10;1.60;;;;;;;20.75;58.79;100416.73;1646666;85;21058;-73
2022/09/19 10:54:44;;;;;;;2.55;1.20;;;;;;;20.48;59.45;100415.20;1623428;87;21047;-73
2022/09/19 10:57:44;;;;;;;2.70;1.40;;;;;;;20.70;61.20;100414.18;1672841;84;21566;-74
2022/09/19 11:00:55;;;;;;;2.02;1.35;;;;;;;21.03;60.72;100423.95;1660446;86;21040;-73
2022/09/19 11:03:35;;;;;;;4.35;1.30;;;;;;;21.10;57.93;100427.64;1633483;86;21615;-73
2022/09/19 11:06:16;;;;;;;3.35;1.17;;;;;;;21.08;58.43;100423.03;1632774;85;21063;-74
2022/09/19 11:08:54;;;;;;;1.70;1.35;;;;;;;21.14;57.86;100418.55;1649049;85;21071;-73
2022/09/19 11:11:49;;;;;;;4.78;2.12;;;;;;;21.14;59.43;100418.55;1624519;87;21662;-72
2022/09/19 11:14:35;;;;;;;1.95;1.20;;;;;;;21.21;59.08;100427.03;1622704;87;21048;-73
2022/09/19 11:17:38;;;;;;;1.55;1.30;;;;;;;21.06;56.83;100436.73;1629928;86;21004;-73
2022/09/19 11:20:38;;;;;;;3.85;1.25;;;;;;;20.91;57.98;100422.75;1651951;86;21709;-73
2022/09/19 11:24:02;;;;;;;1.37;1.20;;;;;;;21.04;58.27;100434.74;1678045;85;21584;-72
2022/09/19 11:26:58;;;;;;;1.20;1.10;;;;;;;20.97;57.13;100436.59;1664946;83;21047;-72
2022/09/19 11:30:01;;;;;;;1.47;1.25;;;;;;;21.10;57.52;100430.27;1645265;86;21027;-72
2022/09/19 11:32:44;;;;;;;2.37;1.20;;;;;;;21.18;56.82;100431.22;1638709;86;21063;-73
2022/09/19 11:35:29;;;;;;;2.72;1.52;;;;;;;21.23;56.18;100432.59;1655105;85;21107;-74
2022/09/19 11:38:20;;;;;;;2.05;1.60;;;;;;;21.06;56.46;100453.27;1663625;86;21067;-72
2022/09/19 11:41:13;;;;;;;2.92;1.30;;;;;;;21.07;57.70;100448.88;1648926;86;21085;-72
2022/09/19 11:43:59;;;;;;;3.05;1.20;;;;;;;21.28;59.52;100445.62;1636478;86;21103;-73
2022/09/19 11:47:07;;;;;;;2.05;1.37;;;;;;;21.21;57.08;100441.43;1595110;84;21114;-73
2022/09/19 11:49:52;;;;;;;4.10;1.35;;;;;;;20.83;57.61;100452.70;1610453;87;21087;-72
2022/09/19 11:52:36;;;;;;;2.77;1.30;;;;;;;21.04;57.56;100444.72;1609929;88;21087;-72
2022/09/19 11:55:27;;;;;;;3.65;1.25;;;;;;;21.26;57.54;100433.15;1597906;88;21610;-73
2022/09/19 11:58:06;;;;;;;3.40;1.12;;;;;;;21.24;56.25;100443.42;1592760;88;21616;-73
2022/09/19 12:00:52;;;;;;;2.60;1.00;;;;;;;21.38;56.90;100448.23;1630065;86;21041;-73
2022/09/19 12:03:32;;;;;;;3.77;1.20;;;;;;;21.41;56.04;100443.55;1636006;87;21063;-72
2022/09/19 12:06:12;;;;;;;2.95;1.22;;;;;;;21.01;58.11;100448.94;1632962;87;21024;-73
2022/09/19 12:09:17;;;;;;;3.67;1.17;;;;;;;20.89;57.21;100446.92;1632699;87;21532;-73
2022/09/19 12:12:11;;;;;;;1.77;1.12;;;;;;;20.93;57.78;100446.99;1630576;87;21555;-73
2022/09/19 12:15:06;;;;;;;2.50;1.40;;;;;;;21.11;55.89;100458.11;1639372;86;21070;-73
2022/09/19 12:17:42;;;;;;;2.75;1.40;;;;;;;21.51;56.49;100445.35;1639033;85;21102;-74
2022/09/19 12:20:23;;;;;;;3.05;1.45;;;;;;;21.55;55.01;100458.05;1616683;86;21564;-72
2022/09/19 12:25:59;;;;;;;1.75;1.12;;;;;;;21.43;55.86;100451.28;1637822;86;21119;-73
2022/09/19 12:28:31;;;;;;;2.42;1.00;;;;;;;21.52;57.61;100445.22;1631616;86;21105;-73